createdAt,value
2022-11-14T00:00:49.999Z,101763.00
2022-11-14T00:03:19.867Z,101749.00
2022-11-14T00:05:50.111Z,101767.00
2022-11-14T00:08:26.183Z,101752.00
2022-11-14T00:10:56.145Z,101758.00
2022-11-14T00:13:26.073Z,101757.00
2022-11-14T00:15:56.504Z,101751.00
2022-11-14T00:18:27.443Z,101748.00
2022-11-14T00:20:57.582Z,101750.00
2022-11-14T00:23:30.029Z,101741.00
2022-11-14T00:25:59.847Z,101731.00
2022-11-14T00:28:29.959Z,101740.00
2022-11-14T00:31:00.088Z,101727.00
2022-11-14T00:33:29.987Z,101735.00
2022-11-14T00:36:00.200Z,101722.00
2022-11-14T00:38:32.807Z,101737.00
2022-11-14T00:41:02.754Z,101731.00
2022-11-14T00:43:32.652Z,101724.00
2022-11-14T00:46:02.551Z,101725.00
2022-11-14T00:48:32.678Z,101715.00
2022-11-14T00:51:02.700Z,101711.00
2022-11-14T00:53:35.155Z,101709.00
2022-11-14T00:56:05.390Z,101710.00
2022-11-14T00:58:35.287Z,101711.00
2022-11-14T01:01:05.201Z,101711.00
2022-11-14T01:03:35.083Z,101687.00
2022-11-14T01:06:08.870Z,101695.00
2022-11-14T01:08:41.281Z,101691.00
2022-11-14T01:11:14.562Z,101691.00
2022-11-14T01:13:44.695Z,101679.00
2022-11-14T01:16:14.722Z,101689.00
2022-11-14T01:18:44.820Z,101697.00
2022-11-14T01:21:16.710Z,101687.00
2022-11-14T01:23:49.124Z,101682.00
2022-11-14T01:26:18.962Z,101679.00
2022-11-14T01:28:48.846Z,101681.00
2022-11-14T01:31:23.531Z,101683.00
2022-11-14T01:33:54.386Z,101680.00
2022-11-14T01:36:24.976Z,101677.00
2022-11-14T01:39:00.231Z,101670.00
2022-11-14T01:41:30.081Z,101660.00
2022-11-14T01:44:00.000Z,101660.00
2022-11-14T01:46:34.468Z,101657.00
2022-11-14T01:49:13.563Z,101658.00
2022-11-14T01:51:48.051Z,101649.00
2022-11-14T01:54:26.006Z,101644.00
2022-11-14T01:56:59.516Z,101649.00
2022-11-14T01:59:43.772Z,101636.00
2022-11-14T02:02:19.986Z,101639.00
2022-11-14T02:04:54.678Z,101632.00
2022-11-14T02:07:26.906Z,101633.00
2022-11-14T02:10:00.301Z,101632.00
2022-11-14T02:12:30.471Z,101621.00
2022-11-14T02:15:01.798Z,101622.00
2022-11-14T02:17:31.702Z,101620.00
2022-11-14T02:20:19.864Z,101625.00
2022-11-14T02:22:49.694Z,101620.00
2022-11-14T02:25:21.527Z,101623.00
2022-11-14T02:27:52.240Z,101604.00
2022-11-14T02:30:25.301Z,101602.00
2022-11-14T02:33:10.475Z,101599.00
2022-11-14T02:35:43.291Z,101593.00
2022-11-14T02:38:13.304Z,101592.00
2022-11-14T02:40:43.150Z,101581.00
2022-11-14T02:43:13.025Z,101585.00
2022-11-14T02:45:42.866Z,101581.00
2022-11-14T02:48:12.722Z,101577.00
2022-11-14T02:50:45.484Z,101581.00
2022-11-14T02:53:15.322Z,101569.00
2022-11-14T02:55:45.325Z,101572.00
2022-11-14T02:58:15.149Z,101574.00
2022-11-14T03:01:13.446Z,101568.00
2022-11-14T03:03:34.887Z,101567.00
2022-11-14T03:06:08.064Z,101567.00
2022-11-14T03:08:37.923Z,101557.00
2022-11-14T03:11:08.332Z,101556.00
2022-11-14T03:13:38.805Z,101558.00
2022-11-14T03:16:10.180Z,101558.00
2022-11-14T03:18:40.447Z,101545.00
2022-11-14T03:21:15.948Z,101553.00
2022-11-14T03:23:45.840Z,101540.00
2022-11-14T03:26:19.007Z,101554.00
2022-11-14T03:28:48.863Z,101546.00
2022-11-14T03:31:18.713Z,101555.00
2022-11-14T03:33:48.528Z,101546.00
2022-11-14T03:36:21.547Z,101540.00
2022-11-14T03:38:51.380Z,101547.00
2022-11-14T03:41:21.220Z,101535.00
2022-11-14T03:43:51.046Z,101532.00
2022-11-14T03:46:20.927Z,101536.00
2022-11-14T03:48:50.839Z,101529.00
2022-11-14T03:51:23.271Z,101531.00
2022-11-14T03:53:53.126Z,101526.00
2022-11-14T03:56:22.964Z,101528.00
2022-11-14T03:58:52.768Z,101521.00
2022-11-14T04:01:22.720Z,101520.00
2022-11-14T04:03:52.760Z,101517.00
2022-11-14T04:06:25.459Z,101508.00
2022-11-14T04:08:56.738Z,101509.00
2022-11-14T04:11:26.622Z,101503.00
2022-11-14T04:13:56.462Z,101504.00
2022-11-14T04:16:26.393Z,101508.00
2022-11-14T04:18:56.264Z,101510.00
2022-11-14T04:21:28.715Z,101505.00
2022-11-14T04:23:58.561Z,101500.00
2022-11-14T04:26:28.416Z,101510.00
2022-11-14T04:28:58.284Z,101495.00
2022-11-14T04:31:28.090Z,101492.00
2022-11-14T04:33:57.918Z,101490.00
2022-11-14T04:36:30.340Z,101497.00
2022-11-14T04:39:00.200Z,101484.00
2022-11-14T04:41:30.162Z,101485.00
2022-11-14T04:44:00.000Z,101475.00
2022-11-14T04:46:29.837Z,101474.00
2022-11-14T04:48:59.654Z,101472.00
2022-11-14T04:51:32.091Z,101467.00
2022-11-14T04:54:01.931Z,101481.00
2022-11-14T04:56:31.815Z,101467.00
2022-11-14T04:59:01.631Z,101467.00
2022-11-14T05:01:31.666Z,101467.00
2022-11-14T05:04:01.656Z,101468.00
2022-11-14T05:06:34.080Z,101480.00
2022-11-14T05:09:03.947Z,101465.00
2022-11-14T05:11:33.795Z,101471.00
2022-11-14T05:14:03.640Z,101468.00
2022-11-14T05:16:33.471Z,101476.00
2022-11-14T05:19:03.548Z,101477.00
2022-11-14T05:21:36.033Z,101473.00
2022-11-14T05:24:06.168Z,101470.00
2022-11-14T05:26:36.000Z,101463.00
2022-11-14T05:29:06.162Z,101475.00
2022-11-14T05:31:35.984Z,101466.00
2022-11-14T05:34:05.876Z,101466.00
2022-11-14T05:36:38.298Z,101475.00
2022-11-14T05:39:08.147Z,101468.00
2022-11-14T05:41:37.982Z,101467.00
2022-11-14T05:44:08.799Z,101469.00
2022-11-14T05:46:38.789Z,101468.00
2022-11-14T05:49:08.639Z,101468.00
2022-11-14T05:51:41.138Z,101469.00
2022-11-14T05:54:11.203Z,101466.00
2022-11-14T05:56:41.232Z,101461.00
2022-11-14T05:59:11.097Z,101458.00
2022-11-14T06:01:41.047Z,101460.00
2022-11-14T06:04:11.008Z,101463.00
2022-11-14T06:06:43.636Z,101456.00
2022-11-14T06:09:13.618Z,101460.00
2022-11-14T06:11:43.571Z,101458.00
2022-11-14T06:14:13.470Z,101473.00
2022-11-14T06:16:43.338Z,101461.00
2022-11-14T06:19:13.262Z,101463.00
2022-11-14T06:21:45.677Z,101464.00
2022-11-14T06:24:15.535Z,101468.00
2022-11-14T06:26:45.416Z,101467.00
2022-11-14T06:29:15.574Z,101466.00
2022-11-14T06:31:45.450Z,101461.00
2022-11-14T06:34:15.721Z,101455.00
2022-11-14T06:36:48.155Z,101459.00
2022-11-14T06:39:17.996Z,101458.00
2022-11-14T06:41:47.853Z,101451.00
2022-11-14T06:44:17.999Z,101450.00
2022-11-14T06:46:47.832Z,101452.00
2022-11-14T06:49:17.957Z,101456.00
2022-11-14T06:51:50.372Z,101460.00
2022-11-14T06:54:20.547Z,101459.00
2022-11-14T06:56:50.355Z,101455.00
2022-11-14T06:59:20.482Z,101457.00
2022-11-14T07:01:50.335Z,101464.00
2022-11-14T07:04:20.435Z,101461.00
2022-11-14T07:06:52.955Z,101460.00
2022-11-14T07:09:22.791Z,101458.00
2022-11-14T07:11:52.643Z,101462.00
2022-11-14T07:14:22.473Z,101463.00
2022-11-14T07:16:52.335Z,101461.00
2022-11-14T07:19:22.194Z,101453.00
2022-11-14T07:21:54.595Z,101455.00
2022-11-14T07:24:24.467Z,101450.00
2022-11-14T07:26:54.319Z,101457.00
2022-11-14T07:29:24.210Z,101460.00
2022-11-14T07:31:54.037Z,101466.00
2022-11-14T07:34:23.878Z,101463.00
2022-11-14T07:36:57.736Z,101460.00
2022-11-14T07:39:27.675Z,101466.00
2022-11-14T07:41:57.527Z,101455.00
2022-11-14T07:44:27.404Z,101450.00
2022-11-14T07:46:57.259Z,101458.00
2022-11-14T07:49:27.128Z,101463.00
2022-11-14T07:51:59.571Z,101456.00
2022-11-14T07:54:30.100Z,101456.00
2022-11-14T07:56:59.936Z,101445.00
2022-11-14T07:59:29.763Z,101442.00
2022-11-14T08:01:59.610Z,101442.00
2022-11-14T08:04:29.430Z,101448.00
2022-11-14T08:07:01.941Z,101440.00
2022-11-14T08:09:31.866Z,101440.00
2022-11-14T08:12:01.791Z,101441.00
2022-11-14T08:14:31.645Z,101452.00
2022-11-14T08:17:01.504Z,101449.00
2022-11-14T08:19:31.341Z,101444.00
2022-11-14T08:22:03.837Z,101453.00
2022-11-14T08:24:33.723Z,101459.00
2022-11-14T08:27:03.624Z,101459.00
2022-11-14T08:29:33.510Z,101451.00
2022-11-14T08:32:03.399Z,101447.00
2022-11-14T08:34:33.244Z,101436.00
2022-11-14T08:37:06.265Z,101442.00
2022-11-14T08:39:36.139Z,101431.00
2022-11-14T08:42:06.313Z,101428.00
2022-11-14T08:44:36.134Z,101433.00
2022-11-14T08:47:06.055Z,101439.00
2022-11-14T08:49:35.877Z,101433.00
2022-11-14T08:52:12.323Z,101426.00
2022-11-14T08:54:45.587Z,101419.00
2022-11-14T08:57:15.516Z,101424.00
2022-11-14T08:59:45.463Z,101415.00
2022-11-14T09:02:16.405Z,101420.00
2022-11-14T09:04:46.320Z,101406.00
2022-11-14T09:07:18.894Z,101410.00
2022-11-14T09:09:48.797Z,101417.00
2022-11-14T09:12:18.685Z,101420.00
2022-11-14T09:14:48.549Z,101427.00
2022-11-14T09:17:18.679Z,101418.00
2022-11-14T09:19:48.506Z,101413.00
2022-11-14T09:22:21.206Z,101400.00
2022-11-14T09:24:52.193Z,101410.00
2022-11-14T09:27:22.168Z,101396.00
2022-11-14T09:29:52.035Z,101391.00
2022-11-14T09:32:21.835Z,101403.00
2022-11-14T09:34:51.726Z,101398.00
2022-11-14T09:37:24.150Z,101398.00
2022-11-14T09:39:54.044Z,101392.00
2022-11-14T09:42:42.844Z,101399.00
2022-11-14T09:45:16.981Z,101394.00
2022-11-14T09:47:50.153Z,101392.00
2022-11-14T09:50:25.916Z,101393.00
2022-11-14T09:53:01.443Z,101395.00
2022-11-14T09:55:37.252Z,101396.00
2022-11-14T09:58:11.715Z,101390.00
2022-11-14T10:00:51.499Z,101384.00
2022-11-14T10:03:27.809Z,101379.00
2022-11-14T10:06:22.798Z,101376.00
2022-11-14T10:09:30.727Z,101371.00
2022-11-14T10:12:09.334Z,101369.00
2022-11-14T10:15:09.655Z,101365.00
2022-11-14T10:18:05.563Z,101364.00
2022-11-14T10:20:42.693Z,101352.00
2022-11-14T10:23:36.021Z,101340.00
2022-11-14T10:26:17.236Z,101346.00
2022-11-14T10:29:11.903Z,101328.00
2022-11-14T10:31:54.206Z,101329.00
2022-11-14T10:34:33.314Z,101334.00
2022-11-14T10:37:12.908Z,101324.00
2022-11-14T10:39:48.763Z,101321.00
2022-11-14T10:42:28.316Z,101313.00
2022-11-14T10:45:06.706Z,101326.00
2022-11-14T10:47:49.408Z,101326.00
2022-11-14T10:50:23.395Z,101335.00
2022-11-14T10:52:59.271Z,101315.00
2022-11-14T10:55:50.094Z,101319.00
2022-11-14T10:58:21.581Z,101316.00
2022-11-14T11:00:51.543Z,101303.00
2022-11-14T11:03:21.570Z,101299.00
2022-11-14T11:05:54.925Z,101295.00
2022-11-14T11:08:45.765Z,101287.00
2022-11-14T11:11:29.697Z,101295.00
2022-11-14T11:14:04.283Z,101287.00
2022-11-14T11:16:34.239Z,101289.00
2022-11-14T11:19:26.795Z,101282.00
2022-11-14T11:21:56.651Z,101277.00
2022-11-14T11:24:37.348Z,101264.00
2022-11-14T11:27:25.277Z,101292.00
2022-11-14T11:30:20.230Z,101272.00
2022-11-14T11:32:50.118Z,101274.00
2022-11-14T11:35:20.884Z,101261.00
2022-11-14T11:37:56.647Z,101266.00
2022-11-14T11:40:29.851Z,101260.00
2022-11-14T11:43:37.253Z,101259.00
2022-11-14T11:46:00.836Z,101254.00
2022-11-14T11:48:41.826Z,101242.00
2022-11-14T11:51:20.075Z,101242.00
2022-11-14T11:54:00.545Z,101238.00
2022-11-14T11:56:35.357Z,101238.00
2022-11-14T11:59:16.074Z,101233.00
2022-11-14T12:01:48.572Z,101232.00
2022-11-14T12:04:18.535Z,101235.00
2022-11-14T12:06:55.761Z,101236.00
2022-11-14T12:09:55.746Z,101228.00
2022-11-14T12:12:33.621Z,101221.00
2022-11-14T12:15:20.768Z,101231.00
2022-11-14T12:18:19.040Z,101234.00
2022-11-14T12:21:10.868Z,101227.00
2022-11-14T12:24:32.612Z,101227.00
2022-11-14T12:27:18.400Z,101230.00
2022-11-14T12:30:13.664Z,101218.00
2022-11-14T12:32:48.292Z,101225.00
2022-11-14T12:35:26.740Z,101226.00
2022-11-14T12:37:59.361Z,101230.00
2022-11-14T12:40:32.941Z,101221.00
2022-11-14T12:43:05.515Z,101226.00
2022-11-14T12:46:01.780Z,101216.00
2022-11-14T12:48:39.293Z,101207.00
2022-11-14T12:51:51.247Z,101214.00
2022-11-14T12:54:49.310Z,101215.00
2022-11-14T12:57:41.882Z,101213.00
2022-11-14T13:00:13.084Z,101216.00
2022-11-14T13:03:07.348Z,101213.00
2022-11-14T13:05:58.607Z,101214.00
2022-11-14T13:08:52.347Z,101215.00
2022-11-14T13:11:56.045Z,101207.00
2022-11-14T13:14:38.494Z,101200.00
2022-11-14T13:17:41.654Z,101206.00
2022-11-14T13:20:46.639Z,101211.00
2022-11-14T13:24:00.541Z,101207.00
2022-11-14T13:26:56.152Z,101206.00
2022-11-14T13:30:05.011Z,101205.00
2022-11-14T13:33:07.786Z,101205.00
2022-11-14T13:35:47.614Z,101193.00
2022-11-14T13:39:08.111Z,101206.00
2022-11-14T13:42:22.953Z,101199.00
2022-11-14T13:45:34.892Z,101196.00
2022-11-14T13:48:47.333Z,101190.00
2022-11-14T13:54:18.058Z,101176.00
2022-11-14T13:57:03.240Z,101181.00
2022-11-14T14:00:19.981Z,101178.00
2022-11-14T14:03:22.912Z,101170.00
2022-11-14T14:06:13.266Z,101165.00
2022-11-14T14:09:09.781Z,101162.00
2022-11-14T14:11:56.074Z,101161.00
2022-11-14T14:14:53.757Z,101151.00
2022-11-14T14:17:35.847Z,101162.00
2022-11-14T14:20:22.907Z,101164.00
2022-11-14T14:23:03.025Z,101164.00
2022-11-14T14:25:45.719Z,101157.00
2022-11-14T14:28:28.083Z,101154.00
2022-11-14T14:31:06.672Z,101151.00
2022-11-14T14:33:46.872Z,101152.00
2022-11-14T14:36:23.018Z,101147.00
2022-11-14T14:38:53.627Z,101149.00
2022-11-14T14:41:23.793Z,101133.00
2022-11-14T14:43:57.541Z,101142.00
2022-11-14T14:46:33.677Z,101135.00
2022-11-14T14:49:07.967Z,101139.00
2022-11-14T14:51:40.425Z,101142.00
2022-11-14T14:54:22.452Z,101136.00
2022-11-14T14:57:02.887Z,101133.00
2022-11-14T14:59:36.087Z,101134.00
2022-11-14T15:02:06.172Z,101136.00
2022-11-14T15:04:42.271Z,101129.00
2022-11-14T15:07:23.333Z,101126.00
2022-11-14T15:09:58.759Z,101126.00
2022-11-14T15:12:32.131Z,101120.00
2022-11-14T15:15:03.736Z,101121.00
2022-11-14T15:17:35.984Z,101124.00
2022-11-14T15:20:25.745Z,101122.00
2022-11-14T15:23:21.182Z,101129.00
2022-11-14T15:25:51.000Z,101121.00
2022-11-14T15:28:23.895Z,101122.00
2022-11-14T15:31:02.355Z,101126.00
2022-11-14T15:33:35.875Z,101118.00
2022-11-14T15:36:17.718Z,101121.00
2022-11-14T15:39:03.628Z,101115.00
2022-11-14T15:41:35.120Z,101111.00
2022-11-14T15:44:05.810Z,101109.00
2022-11-14T15:46:49.750Z,101108.00
2022-11-14T15:49:26.923Z,101095.00
2022-11-14T15:52:02.395Z,101099.00
2022-11-14T15:54:34.668Z,101101.00
2022-11-14T15:57:11.973Z,101099.00
2022-11-14T15:59:42.423Z,101092.00
2022-11-14T16:02:18.619Z,101100.00
2022-11-14T16:04:48.940Z,101093.00
2022-11-14T16:07:22.618Z,101087.00
2022-11-14T16:09:53.057Z,101089.00
2022-11-14T16:12:22.927Z,101092.00
2022-11-14T16:14:52.856Z,101090.00
2022-11-14T16:17:22.752Z,101095.00
2022-11-14T16:19:52.578Z,101094.00
2022-11-14T16:22:24.985Z,101093.00
2022-11-14T16:24:54.868Z,101080.00
2022-11-14T16:27:24.742Z,101084.00
2022-11-14T16:29:54.677Z,101089.00
2022-11-14T16:32:26.732Z,101092.00
2022-11-14T16:34:56.591Z,101084.00
2022-11-14T16:37:29.035Z,101091.00
2022-11-14T16:39:58.923Z,101095.00
2022-11-14T16:42:28.765Z,101094.00
2022-11-14T16:45:03.263Z,101091.00
2022-11-14T16:47:33.387Z,101091.00
2022-11-14T16:50:03.269Z,101090.00
2022-11-14T16:52:35.821Z,101090.00
2022-11-14T16:55:05.694Z,101083.00
2022-11-14T16:57:37.085Z,101085.00
2022-11-14T17:00:13.354Z,101090.00
2022-11-14T17:02:44.092Z,101092.00
2022-11-14T17:05:14.166Z,101089.00
2022-11-14T17:07:46.583Z,101093.00
2022-11-14T17:10:16.493Z,101090.00
2022-11-14T17:12:46.475Z,101096.00
2022-11-14T17:15:16.584Z,101089.00
2022-11-14T17:17:50.244Z,101094.00
2022-11-14T17:20:20.493Z,101094.00
2022-11-14T17:22:52.940Z,101085.00
2022-11-14T17:25:22.814Z,101083.00
2022-11-14T17:27:52.707Z,101087.00
2022-11-14T17:30:22.736Z,101093.00
2022-11-14T17:32:56.246Z,101090.00
2022-11-14T17:35:26.510Z,101091.00
2022-11-14T17:38:00.249Z,101080.00
2022-11-14T17:40:30.595Z,101088.00
2022-11-14T17:43:00.422Z,101086.00
2022-11-14T17:45:30.276Z,101092.00
2022-11-14T17:48:00.109Z,101089.00
2022-11-14T17:50:33.163Z,101082.00
2022-11-14T17:53:09.744Z,101089.00
2022-11-14T17:55:39.899Z,101070.00
2022-11-14T17:58:09.826Z,101073.00
2022-11-14T18:00:39.816Z,101075.00
2022-11-14T18:03:09.667Z,101074.00
2022-11-14T18:05:39.570Z,101072.00
2022-11-14T18:08:12.009Z,101071.00
2022-11-14T18:10:42.069Z,101054.00
2022-11-14T18:13:12.474Z,101068.00
2022-11-14T18:15:42.518Z,101071.00
2022-11-14T18:18:12.443Z,101067.00
2022-11-14T18:20:42.311Z,101068.00
2022-11-14T18:23:14.764Z,101062.00
2022-11-14T18:25:44.596Z,101075.00
2022-11-14T18:28:14.536Z,101063.00
2022-11-14T18:30:44.391Z,101056.00
2022-11-14T18:33:14.303Z,101071.00
2022-11-14T18:35:44.159Z,101052.00
2022-11-14T18:38:16.606Z,101059.00
2022-11-14T18:40:46.892Z,101059.00
2022-11-14T18:43:18.131Z,101047.00
2022-11-14T18:45:48.014Z,101047.00
2022-11-14T18:48:19.573Z,101030.00
2022-11-14T18:50:49.563Z,101031.00
2022-11-14T18:53:21.974Z,101031.00
2022-11-14T18:55:53.233Z,101027.00
2022-11-14T18:58:23.199Z,101028.00
2022-11-14T19:00:53.198Z,101022.00
2022-11-14T19:03:23.102Z,101024.00
2022-11-14T19:05:55.513Z,101023.00
2022-11-14T19:08:28.178Z,101013.00
2022-11-14T19:11:04.425Z,101018.00
2022-11-14T19:13:34.781Z,101012.00
2022-11-14T19:16:05.434Z,101022.00
2022-11-14T19:18:35.761Z,101014.00
2022-11-14T19:21:06.747Z,101024.00
2022-11-14T19:23:39.163Z,101018.00
2022-11-14T19:26:12.688Z,101019.00
2022-11-14T19:28:42.574Z,101019.00
2022-11-14T19:31:14.070Z,101014.00
2022-11-14T19:33:46.899Z,101019.00
2022-11-14T19:36:45.269Z,101018.00
2022-11-14T19:39:14.419Z,101004.00
2022-11-14T19:41:44.384Z,101012.00
2022-11-14T19:44:14.292Z,101009.00
2022-11-14T19:46:47.526Z,101014.00
2022-11-14T19:49:18.430Z,101004.00
2022-11-14T19:51:48.956Z,100998.00
2022-11-14T19:54:21.409Z,101007.00
2022-11-14T19:56:51.754Z,100994.00
2022-11-14T19:59:24.423Z,101002.00
2022-11-14T20:01:55.755Z,100998.00
2022-11-14T20:04:25.809Z,100997.00
2022-11-14T20:06:56.710Z,100998.00
2022-11-14T20:09:29.287Z,100995.00
2022-11-14T20:12:00.238Z,100986.00
2022-11-14T20:14:30.195Z,100989.00
2022-11-14T20:17:00.088Z,100997.00
2022-11-14T20:19:30.347Z,100995.00
2022-11-14T20:22:00.271Z,100981.00
2022-11-14T20:24:32.766Z,100987.00
2022-11-14T20:27:02.688Z,100987.00
2022-11-14T20:29:33.181Z,100978.00
2022-11-14T20:32:03.487Z,100969.00
2022-11-14T20:34:34.586Z,100974.00
2022-11-14T20:37:11.150Z,100977.00
2022-11-14T20:39:44.380Z,100981.00
2022-11-14T20:42:14.313Z,100981.00
2022-11-14T20:44:44.242Z,100977.00
2022-11-14T20:47:14.386Z,100976.00
2022-11-14T20:49:45.123Z,100976.00
2022-11-14T20:52:15.951Z,100978.00
2022-11-14T20:54:48.444Z,100983.00
2022-11-14T20:57:18.341Z,100969.00
2022-11-14T20:59:48.235Z,100964.00
2022-11-14T21:02:18.199Z,100957.00
2022-11-14T21:04:48.115Z,100961.00
2022-11-14T21:07:17.947Z,100965.00
2022-11-14T21:10:10.398Z,100970.00
2022-11-14T21:12:41.193Z,100970.00
2022-11-14T21:15:13.555Z,100953.00
2022-11-14T21:17:43.374Z,100964.00
2022-11-14T21:20:14.323Z,100965.00
2022-11-14T21:22:44.507Z,100962.00
2022-11-14T21:25:16.942Z,100961.00
2022-11-14T21:27:46.780Z,100959.00
2022-11-14T21:30:17.246Z,100949.00
2022-11-14T21:32:47.088Z,100947.00
2022-11-14T21:35:17.103Z,100949.00
2022-11-14T21:37:47.024Z,100947.00
2022-11-14T21:40:19.677Z,100940.00
2022-11-14T21:42:49.884Z,100951.00
2022-11-14T21:45:19.927Z,100946.00
2022-11-14T21:47:49.754Z,100941.00
2022-11-14T21:50:20.102Z,100940.00
2022-11-14T21:52:49.938Z,100945.00
2022-11-14T21:55:22.431Z,100935.00
2022-11-14T21:57:56.439Z,100936.00
2022-11-14T22:00:26.260Z,100930.00
2022-11-14T22:03:08.627Z,100931.00
2022-11-14T22:05:38.439Z,100933.00
2022-11-14T22:08:08.717Z,100927.00
2022-11-14T22:10:41.139Z,100935.00
2022-11-14T22:13:10.973Z,100922.00
2022-11-14T22:15:40.814Z,100922.00
2022-11-14T22:18:10.619Z,100921.00
2022-11-14T22:20:40.488Z,100916.00
2022-11-14T22:23:10.357Z,100920.00
2022-11-14T22:25:42.765Z,100923.00
2022-11-14T22:28:12.588Z,100918.00
2022-11-14T22:30:42.672Z,100922.00
2022-11-14T22:33:12.519Z,100915.00
2022-11-14T22:35:42.364Z,100911.00
2022-11-14T22:38:12.169Z,100914.00
2022-11-14T22:40:44.758Z,100922.00
2022-11-14T22:43:14.843Z,100916.00
2022-11-14T22:45:44.668Z,100914.00
2022-11-14T22:48:14.522Z,100924.00
2022-11-14T22:50:44.323Z,100927.00
2022-11-14T22:53:14.305Z,100914.00
2022-11-14T22:55:52.270Z,100918.00
2022-11-14T22:58:22.178Z,100917.00
2022-11-14T23:00:53.045Z,100913.00
2022-11-14T23:03:24.554Z,100925.00
2022-11-14T23:05:54.501Z,100910.00
2022-11-14T23:08:24.474Z,100911.00
2022-11-14T23:10:56.921Z,100907.00
2022-11-14T23:13:26.734Z,100904.00
2022-11-14T23:15:56.577Z,100910.00
2022-11-14T23:18:26.619Z,100905.00
2022-11-14T23:20:56.480Z,100897.00
2022-11-14T23:23:26.290Z,100893.00
2022-11-14T23:25:58.725Z,100899.00
2022-11-14T23:28:28.541Z,100894.00
2022-11-14T23:30:59.318Z,100897.00
2022-11-14T23:33:30.017Z,100886.00
2022-11-14T23:36:00.086Z,100893.00
2022-11-14T23:38:30.665Z,100879.00
2022-11-14T23:41:04.751Z,100891.00
2022-11-14T23:43:34.948Z,100889.00
2022-11-14T23:46:04.943Z,100885.00
2022-11-14T23:48:34.773Z,100883.00
2022-11-14T23:51:04.578Z,100881.00
2022-11-14T23:53:34.637Z,100880.00
2022-11-14T23:56:07.924Z,100877.00
2022-11-14T23:58:37.766Z,100882.00
